No particular awareness of the weather is required.    There are no Weather-warnings


Meteo18 Weather Cam more information Meteo18 Weather Cam


Thunder radar more information blitzortung!


Rain radar more information rain snow radar


Visit our other weather sites:

Template documentation
and downloads

And another site



Weather Underground History page Text

Daily Summary for June 15, 2017 Units:  Both    English   Metric
« Previous Day
Next Day »
Daily Weekly Monthly Yearly Custom
  High: Low: Average:
Temperature: 86.4 °F /  30.2 °C 60.4 °F /  15.8 °C 74.5 °F /  23.6 °C
Dew Point: 69.6 °F /  20.9 °C 52.7 °F /  11.5 °C 62.2 °F /  16.8 °C
Humidity: 96 % 33 % 69 %
Wind Speed: 19 mph /  30.6 km/h - 3.5 mph /  5.7 km/h
Wind Gust: 19 mph /  30.6 km/h - -
Wind:- - West
Pressure: 30.2 in /  1021.2 hPa 30 in /  1016.1 hPa -
Precipitation: 0 in /  0.0 mm    
Historical Graphs
 
 
Tabular Data for June 15, 2017
Time Temperature Dew Point Pressure Wind Wind Speed Wind Gust Humidity Rainfall Rate (Hourly)
00:02 68.2 °F /  20.1 °C 64.8 °F /  18.2 °C 30 in /  1016.5 hPa Calm     89 % 0 in /  0.0 mm
00:12 67.6 °F /  19.8 °C 64 °F /  17.8 °C 30 in /  1016.5 hPa Calm     88 % 0 in /  0.0 mm
00:17 67.5 °F /  19.7 °C 64 °F /  17.8 °C 30 in /  1016.5 hPa Calm     89 % 0 in /  0.0 mm
00:22 67.5 °F /  19.7 °C 64.4 °F /  18.0 °C 30 in /  1016.8 hPa Calm     90 % 0 in /  0.0 mm
00:27 67.3 °F /  19.6 °C 64.2 °F /  17.9 °C 30 in /  1016.5 hPa Calm     90 % 0 in /  0.0 mm
00:32 66.9 °F /  19.4 °C 63.9 °F /  17.7 °C 30 in /  1016.8 hPa Calm     90 % 0 in /  0.0 mm
00:37 66.7 °F /  19.3 °C 63.7 °F /  17.6 °C 30 in /  1016.5 hPa Calm     90 % 0 in /  0.0 mm
00:42 66.6 °F /  19.2 °C 63.5 °F /  17.5 °C 30 in /  1016.8 hPa Calm     90 % 0 in /  0.0 mm
00:52 66.2 °F /  19.0 °C 63.5 °F /  17.5 °C 30 in /  1016.8 hPa Calm     91 % 0 in /  0.0 mm
00:57 66.2 °F /  19.0 °C 63.5 °F /  17.5 °C 30 in /  1016.8 hPa Calm     91 % 0 in /  0.0 mm
01:02 66 °F /  18.9 °C 63.3 °F /  17.4 °C 30 in /  1016.8 hPa Calm     91 % 0 in /  0.0 mm
01:07 65.8 °F /  18.8 °C 63.5 °F /  17.5 °C 30 in /  1016.8 hPa Calm     92 % 0 in /  0.0 mm
01:12 65.8 °F /  18.8 °C 63.5 °F /  17.5 °C 30 in /  1016.8 hPa Calm     92 % 0 in /  0.0 mm
01:17 65.8 °F /  18.8 °C 63.5 °F /  17.5 °C 30 in /  1016.8 hPa NNW 1 mph /  1.6 km/h   92 % 0 in /  0.0 mm
01:22 66 °F /  18.9 °C 63.9 °F /  17.7 °C 30 in /  1016.8 hPa Calm   1 mph /  1.6 km/h 93 % 0 in /  0.0 mm
01:32 65.8 °F /  18.8 °C 63.7 °F /  17.6 °C 30 in /  1016.5 hPa North 1 mph /  1.6 km/h 1 mph /  1.6 km/h 93 % 0 in /  0.0 mm
01:37 65.7 °F /  18.7 °C 63.3 °F /  17.4 °C 30 in /  1016.5 hPa Calm   1 mph /  1.6 km/h 92 % 0 in /  0.0 mm
01:42 65.3 °F /  18.5 °C 63.1 °F /  17.3 °C 30 in /  1016.8 hPa Calm   1 mph /  1.6 km/h 93 % 0 in /  0.0 mm
01:47 65.1 °F /  18.4 °C 63 °F /  17.2 °C 30 in /  1016.8 hPa Calm   1 mph /  1.6 km/h 93 % 0 in /  0.0 mm
01:52 64.9 °F /  18.3 °C 62.8 °F /  17.1 °C 30 in /  1016.8 hPa Calm   1 mph /  1.6 km/h 93 % 0 in /  0.0 mm
01:57 64.8 °F /  18.2 °C 62.6 °F /  17.0 °C 30 in /  1016.8 hPa Calm   1 mph /  1.6 km/h 93 % 0 in /  0.0 mm
02:02 64.6 °F /  18.1 °C 62.4 °F /  16.9 °C 30 in /  1016.8 hPa Calm   1 mph /  1.6 km/h 93 % 0 in /  0.0 mm
02:07 64.6 °F /  18.1 °C 62.8 °F /  17.1 °C 30 in /  1016.8 hPa Calm     94 % 0 in /  0.0 mm
02:12 64.6 °F /  18.1 °C 62.4 °F /  16.9 °C 30 in /  1016.8 hPa Calm     93 % 0 in /  0.0 mm
02:17 64.2 °F /  17.9 °C 62.2 °F /  16.8 °C 30 in /  1016.5 hPa Calm     93 % 0 in /  0.0 mm
02:22 64.2 °F /  17.9 °C 62.4 °F /  16.9 °C 30 in /  1016.5 hPa Calm     94 % 0 in /  0.0 mm
02:27 64.2 °F /  17.9 °C 62.4 °F /  16.9 °C 30 in /  1016.5 hPa Calm     94 % 0 in /  0.0 mm
02:32 64 °F /  17.8 °C 62.2 °F /  16.8 °C 30 in /  1016.5 hPa Calm     94 % 0 in /  0.0 mm
02:37 64 °F /  17.8 °C 62.2 °F /  16.8 °C 30 in /  1016.5 hPa Calm     94 % 0 in /  0.0 mm
02:42 64 °F /  17.8 °C 62.2 °F /  16.8 °C 30 in /  1016.5 hPa Calm     94 % 0 in /  0.0 mm
02:52 64 °F /  17.8 °C 62.2 °F /  16.8 °C 30 in /  1016.5 hPa Calm     94 % 0 in /  0.0 mm
02:57 63.9 °F /  17.7 °C 62.1 °F /  16.7 °C 30 in /  1016.5 hPa Calm     94 % 0 in /  0.0 mm
03:02 63.7 °F /  17.6 °C 61.9 °F /  16.6 °C 30 in /  1016.5 hPa Calm     94 % 0 in /  0.0 mm
03:07 63.3 °F /  17.4 °C 61.5 °F /  16.4 °C 30 in /  1016.5 hPa Calm     94 % 0 in /  0.0 mm
03:12 63.3 °F /  17.4 °C 61.9 °F /  16.6 °C 30 in /  1016.5 hPa Calm     95 % 0 in /  0.0 mm
03:17 63.5 °F /  17.5 °C 62.1 °F /  16.7 °C 30 in /  1016.5 hPa Calm     95 % 0 in /  0.0 mm
03:22 63.5 °F /  17.5 °C 62.1 °F /  16.7 °C 30 in /  1016.1 hPa Calm     95 % 0 in /  0.0 mm
03:32 62.8 °F /  17.1 °C 61 °F /  16.1 °C 30 in /  1016.1 hPa Calm     94 % 0 in /  0.0 mm
03:42 62.4 °F /  16.9 °C 61 °F /  16.1 °C 30 in /  1016.1 hPa Calm     95 % 0 in /  0.0 mm
03:52 62.6 °F /  17.0 °C 61.2 °F /  16.2 °C 30 in /  1016.5 hPa Calm     95 % 0 in /  0.0 mm
03:57 62.4 °F /  16.9 °C 61 °F /  16.1 °C 30 in /  1016.5 hPa Calm     95 % 0 in /  0.0 mm
04:02 62.2 °F /  16.8 °C 60.8 °F /  16.0 °C 30 in /  1016.5 hPa Calm     95 % 0 in /  0.0 mm
04:07 62.2 °F /  16.8 °C 60.8 °F /  16.0 °C 30 in /  1016.5 hPa Calm     95 % 0 in /  0.0 mm
04:12 62.4 °F /  16.9 °C 61.3 °F /  16.3 °C 30 in /  1016.5 hPa Calm     96 % 0 in /  0.0 mm
04:17 62.1 °F /  16.7 °C 60.6 °F /  15.9 °C 30 in /  1016.5 hPa Calm     95 % 0 in /  0.0 mm
04:27 61.5 °F /  16.4 °C 60.1 °F /  15.6 °C 30 in /  1016.5 hPa Calm     95 % 0 in /  0.0 mm
04:32 61.5 °F /  16.4 °C 60.4 °F /  15.8 °C 30 in /  1016.5 hPa Calm     96 % 0 in /  0.0 mm
04:37 61.7 °F /  16.5 °C 60.6 °F /  15.9 °C 30 in /  1016.5 hPa Calm     96 % 0 in /  0.0 mm
04:42 61.9 °F /  16.6 °C 60.8 °F /  16.0 °C 30 in /  1016.5 hPa Calm     96 % 0 in /  0.0 mm
04:47 62.1 °F /  16.7 °C 61 °F /  16.1 °C 30 in /  1016.5 hPa Calm     96 % 0 in /  0.0 mm
04:52 61.9 °F /  16.6 °C 60.8 °F /  16.0 °C 30 in /  1016.5 hPa Calm     96 % 0 in /  0.0 mm
04:57 62.1 °F /  16.7 °C 61 °F /  16.1 °C 30 in /  1016.5 hPa Calm     96 % 0 in /  0.0 mm
05:02 62.1 °F /  16.7 °C 61 °F /  16.1 °C 30 in /  1016.5 hPa Calm     96 % 0 in /  0.0 mm
05:12 61.5 °F /  16.4 °C 60.1 °F /  15.6 °C 30 in /  1016.5 hPa Calm     95 % 0 in /  0.0 mm
05:17 61.5 °F /  16.4 °C 60.4 °F /  15.8 °C 30 in /  1016.5 hPa Calm     96 % 0 in /  0.0 mm
05:22 61.5 °F /  16.4 °C 60.4 °F /  15.8 °C 30 in /  1016.5 hPa Calm     96 % 0 in /  0.0 mm
05:32 61.3 °F /  16.3 °C 60.3 °F /  15.7 °C 30 in /  1016.5 hPa Calm     96 % 0 in /  0.0 mm
05:37 61.5 °F /  16.4 °C 60.4 °F /  15.8 °C 30 in /  1016.5 hPa Calm     96 % 0 in /  0.0 mm
05:42 61.5 °F /  16.4 °C 60.4 °F /  15.8 °C 30 in /  1016.5 hPa Calm     96 % 0 in /  0.0 mm
05:47 61.3 °F /  16.3 °C 59.9 °F /  15.5 °C 30 in /  1016.5 hPa Calm     95 % 0 in /  0.0 mm
05:52 61.2 °F /  16.2 °C 60.1 °F /  15.6 °C 30 in /  1016.5 hPa Calm     96 % 0 in /  0.0 mm
05:57 61.2 °F /  16.2 °C 60.1 °F /  15.6 °C 30 in /  1016.5 hPa Calm     96 % 0 in /  0.0 mm
06:02 61.2 °F /  16.2 °C 60.1 °F /  15.6 °C 30 in /  1016.5 hPa Calm     96 % 0 in /  0.0 mm
06:12 60.6 °F /  15.9 °C 59.5 °F /  15.3 °C 30 in /  1016.8 hPa Calm     96 % 0 in /  0.0 mm
06:17 60.4 °F /  15.8 °C 59.4 °F /  15.2 °C 30 in /  1016.8 hPa Calm     96 % 0 in /  0.0 mm
06:22 60.4 °F /  15.8 °C 59.4 °F /  15.2 °C 30 in /  1016.8 hPa Calm     96 % 0 in /  0.0 mm
06:27 60.6 °F /  15.9 °C 59.5 °F /  15.3 °C 30 in /  1016.8 hPa Calm     96 % 0 in /  0.0 mm
06:32 60.8 °F /  16.0 °C 59.7 °F /  15.4 °C 30 in /  1016.8 hPa Calm     96 % 0 in /  0.0 mm
06:37 61.2 °F /  16.2 °C 60.1 °F /  15.6 °C 30 in /  1016.8 hPa Calm     96 % 0 in /  0.0 mm
06:42 61.7 °F /  16.5 °C 60.6 °F /  15.9 °C 30 in /  1016.8 hPa Calm     96 % 0 in /  0.0 mm
06:47 62.1 °F /  16.7 °C 61 °F /  16.1 °C 30 in /  1016.8 hPa Calm     96 % 0 in /  0.0 mm
06:52 62.2 °F /  16.8 °C 60.8 °F /  16.0 °C 30 in /  1016.8 hPa Calm     95 % 0 in /  0.0 mm
06:57 62.2 °F /  16.8 °C 60.8 °F /  16.0 °C 30 in /  1016.8 hPa Calm     95 % 0 in /  0.0 mm
07:02 62.4 °F /  16.9 °C 61 °F /  16.1 °C 30 in /  1016.8 hPa Calm     95 % 0 in /  0.0 mm
07:07 62.4 °F /  16.9 °C 61 °F /  16.1 °C 30 in /  1016.8 hPa Calm     95 % 0 in /  0.0 mm
07:12 63 °F /  17.2 °C 61.9 °F /  16.6 °C 30 in /  1016.8 hPa Calm     96 % 0 in /  0.0 mm
07:17 63.3 °F /  17.4 °C 62.2 °F /  16.8 °C 30 in /  1017.2 hPa Calm     96 % 0 in /  0.0 mm
07:22 63.7 °F /  17.6 °C 62.2 °F /  16.8 °C 30 in /  1017.2 hPa Calm     95 % 0 in /  0.0 mm
07:32 64.6 °F /  18.1 °C 63.1 °F /  17.3 °C 30 in /  1017.2 hPa Calm     95 % 0 in /  0.0 mm
07:37 65.3 °F /  18.5 °C 63.5 °F /  17.5 °C 30 in /  1017.2 hPa SW 1 mph /  1.6 km/h   94 % 0 in /  0.0 mm
07:42 65.3 °F /  18.5 °C 63.1 °F /  17.3 °C 30 in /  1017.2 hPa SSW 1 mph /  1.6 km/h   93 % 0 in /  0.0 mm
07:47 65.7 °F /  18.7 °C 63.5 °F /  17.5 °C 30 in /  1017.2 hPa SSW 3 mph /  4.8 km/h 3 mph /  4.8 km/h 93 % 0 in /  0.0 mm
07:52 65.7 °F /  18.7 °C 63.3 °F /  17.4 °C 30 in /  1017.2 hPa Calm   3 mph /  4.8 km/h 92 % 0 in /  0.0 mm
07:57 65.8 °F /  18.8 °C 63.5 °F /  17.5 °C 30 in /  1017.2 hPa Calm   4 mph /  6.4 km/h 92 % 0 in /  0.0 mm
08:02 66.4 °F /  19.1 °C 64 °F /  17.8 °C 30 in /  1017.2 hPa Calm   4 mph /  6.4 km/h 92 % 0 in /  0.0 mm
08:12 67.1 °F /  19.5 °C 64.4 °F /  18.0 °C 30 in /  1017.2 hPa SW 1 mph /  1.6 km/h 4 mph /  6.4 km/h 91 % 0 in /  0.0 mm
08:17 67.6 °F /  19.8 °C 64.6 °F /  18.1 °C 30 in /  1017.2 hPa Calm   3 mph /  4.8 km/h 90 % 0 in /  0.0 mm
08:22 68.5 °F /  20.3 °C 65.1 °F /  18.4 °C 30 in /  1017.2 hPa South 1 mph /  1.6 km/h 2 mph /  3.2 km/h 89 % 0 in /  0.0 mm
08:27 68.7 °F /  20.4 °C 64.8 °F /  18.2 °C 30 in /  1017.2 hPa Calm   2 mph /  3.2 km/h 87 % 0 in /  0.0 mm
08:32 69.4 °F /  20.8 °C 65.1 °F /  18.4 °C 30 in /  1017.2 hPa Calm   2 mph /  3.2 km/h 86 % 0 in /  0.0 mm
08:42 70.5 °F /  21.4 °C 65.5 °F /  18.6 °C 30 in /  1017.2 hPa Calm   2 mph /  3.2 km/h 84 % 0 in /  0.0 mm
08:47 70.5 °F /  21.4 °C 65.5 °F /  18.6 °C 30 in /  1017.2 hPa SSW 1 mph /  1.6 km/h 2 mph /  3.2 km/h 84 % 0 in /  0.0 mm
08:52 70.5 °F /  21.4 °C 65.8 °F /  18.8 °C 30.1 in /  1017.5 hPa SW 3 mph /  4.8 km/h 3 mph /  4.8 km/h 85 % 0 in /  0.0 mm
08:57 70.7 °F /  21.5 °C 66 °F /  18.9 °C 30.1 in /  1017.5 hPa Calm   2 mph /  3.2 km/h 85 % 0 in /  0.0 mm
09:02 71.4 °F /  21.9 °C 66.7 °F /  19.3 °C 30 in /  1017.2 hPa Calm   3 mph /  4.8 km/h 85 % 0 in /  0.0 mm
09:12 72.3 °F /  22.4 °C 66.9 °F /  19.4 °C 30 in /  1017.2 hPa SSE 1 mph /  1.6 km/h 3 mph /  4.8 km/h 83 % 0 in /  0.0 mm
09:17 72.7 °F /  22.6 °C 67.3 °F /  19.6 °C 30.1 in /  1017.5 hPa SW 2 mph /  3.2 km/h 3 mph /  4.8 km/h 83 % 0 in /  0.0 mm
09:27 72.7 °F /  22.6 °C 67.3 °F /  19.6 °C 30.1 in /  1017.5 hPa SSW 3 mph /  4.8 km/h 7 mph /  11.3 km/h 83 % 0 in /  0.0 mm
09:32 73 °F /  22.8 °C 67.3 °F /  19.6 °C 30.1 in /  1017.5 hPa SW 4 mph /  6.4 km/h 7 mph /  11.3 km/h 82 % 0 in /  0.0 mm
09:37 73 °F /  22.8 °C 67.6 °F /  19.8 °C 30.1 in /  1017.5 hPa SSW 2 mph /  3.2 km/h 7 mph /  11.3 km/h 83 % 0 in /  0.0 mm
09:42 73.2 °F /  22.9 °C 67.8 °F /  19.9 °C 30.1 in /  1017.5 hPa SW 3 mph /  4.8 km/h 7 mph /  11.3 km/h 83 % 0 in /  0.0 mm
09:47 73.6 °F /  23.1 °C 67.8 °F /  19.9 °C 30.1 in /  1017.5 hPa SSW 3 mph /  4.8 km/h 7 mph /  11.3 km/h 82 % 0 in /  0.0 mm
09:52 73.8 °F /  23.2 °C 67.6 °F /  19.8 °C 30.1 in /  1017.8 hPa SSW 4 mph /  6.4 km/h 7 mph /  11.3 km/h 81 % 0 in /  0.0 mm
10:02 74.5 °F /  23.6 °C 68.2 °F /  20.1 °C 30.1 in /  1017.5 hPa SSW 3 mph /  4.8 km/h 7 mph /  11.3 km/h 81 % 0 in /  0.0 mm
10:12 75.4 °F /  24.1 °C 69.1 °F /  20.6 °C 30.1 in /  1017.5 hPa SW 3 mph /  4.8 km/h 8 mph /  12.9 km/h 81 % 0 in /  0.0 mm
10:17 75.7 °F /  24.3 °C 68.7 °F /  20.4 °C 30.1 in /  1017.5 hPa SW 3 mph /  4.8 km/h 7 mph /  11.3 km/h 79 % 0 in /  0.0 mm
10:22 76.3 °F /  24.6 °C 68.9 °F /  20.5 °C 30.1 in /  1017.5 hPa SSW 7 mph /  11.3 km/h 7 mph /  11.3 km/h 78 % 0 in /  0.0 mm
10:32 77 °F /  25.0 °C 69.6 °F /  20.9 °C 30.1 in /  1017.5 hPa SW 2 mph /  3.2 km/h 7 mph /  11.3 km/h 78 % 0 in /  0.0 mm
10:42 77.5 °F /  25.3 °C 68.9 °F /  20.5 °C 30.1 in /  1017.5 hPa SSW 5 mph /  8.0 km/h 7 mph /  11.3 km/h 75 % 0 in /  0.0 mm
10:47 78.1 °F /  25.6 °C 69.1 °F /  20.6 °C 30.1 in /  1017.5 hPa SW 5 mph /  8.0 km/h 9 mph /  14.5 km/h 74 % 0 in /  0.0 mm
10:52 78.6 °F /  25.9 °C 69.3 °F /  20.7 °C 30.1 in /  1017.5 hPa SW 3 mph /  4.8 km/h 9 mph /  14.5 km/h 73 % 0 in /  0.0 mm
10:57 79 °F /  26.1 °C 68.4 °F /  20.2 °C 30.1 in /  1017.8 hPa WSW 4 mph /  6.4 km/h 9 mph /  14.5 km/h 70 % 0 in /  0.0 mm
11:02 79.3 °F /  26.3 °C 68.7 °F /  20.4 °C 30.1 in /  1017.8 hPa WSW 4 mph /  6.4 km/h 8 mph /  12.9 km/h 70 % 0 in /  0.0 mm
11:07 79.9 °F /  26.6 °C 69.6 °F /  20.9 °C 30.1 in /  1017.8 hPa SSW 4 mph /  6.4 km/h 8 mph /  12.9 km/h 71 % 0 in /  0.0 mm
11:12 80.2 °F /  26.8 °C 69.6 °F /  20.9 °C 30.1 in /  1017.8 hPa SSW 5 mph /  8.0 km/h 8 mph /  12.9 km/h 70 % 0 in /  0.0 mm
11:17 80.8 °F /  27.1 °C 69.3 °F /  20.7 °C 30.1 in /  1017.8 hPa SSW 5 mph /  8.0 km/h 10 mph /  16.1 km/h 68 % 0 in /  0.0 mm
11:22 81 °F /  27.2 °C 68.9 °F /  20.5 °C 30.1 in /  1017.8 hPa SW 7 mph /  11.3 km/h 10 mph /  16.1 km/h 67 % 0 in /  0.0 mm
11:32 81 °F /  27.2 °C 69.4 °F /  20.8 °C 30.1 in /  1017.8 hPa WNW 6 mph /  9.7 km/h 11 mph /  17.7 km/h 68 % 0 in /  0.0 mm
11:37 81.3 °F /  27.4 °C 68.9 °F /  20.5 °C 30.1 in /  1017.8 hPa West 4 mph /  6.4 km/h 11 mph /  17.7 km/h 66 % 0 in /  0.0 mm
11:42 81.7 °F /  27.6 °C 68.7 °F /  20.4 °C 30.1 in /  1017.8 hPa WSW 8 mph /  12.9 km/h 11 mph /  17.7 km/h 65 % 0 in /  0.0 mm
11:52 81.9 °F /  27.7 °C 68.9 °F /  20.5 °C 30.1 in /  1017.8 hPa SSW 9 mph /  14.5 km/h 10 mph /  16.1 km/h 65 % 0 in /  0.0 mm
11:57 81.9 °F /  27.7 °C 68.9 °F /  20.5 °C 30.1 in /  1017.8 hPa SW 5 mph /  8.0 km/h 10 mph /  16.1 km/h 65 % 0 in /  0.0 mm
12:02 81.9 °F /  27.7 °C 68.5 °F /  20.3 °C 30.1 in /  1017.8 hPa West 7 mph /  11.3 km/h 10 mph /  16.1 km/h 64 % 0 in /  0.0 mm
12:12 82.6 °F /  28.1 °C 69.6 °F /  20.9 °C 30.1 in /  1017.8 hPa SW 7 mph /  11.3 km/h 13 mph /  20.9 km/h 65 % 0 in /  0.0 mm
12:17 82.6 °F /  28.1 °C 68.7 °F /  20.4 °C 30.1 in /  1017.8 hPa SW 8 mph /  12.9 km/h 13 mph /  20.9 km/h 63 % 0 in /  0.0 mm
12:22 82.9 °F /  28.3 °C 68.2 °F /  20.1 °C 30.1 in /  1017.8 hPa SSW 1 mph /  1.6 km/h 11 mph /  17.7 km/h 61 % 0 in /  0.0 mm
12:27 83.3 °F /  28.5 °C 68 °F /  20.0 °C 30.1 in /  1017.8 hPa West 7 mph /  11.3 km/h 11 mph /  17.7 km/h 60 % 0 in /  0.0 mm
12:32 82.9 °F /  28.3 °C 66.6 °F /  19.2 °C 30.1 in /  1017.8 hPa WNW 5 mph /  8.0 km/h 11 mph /  17.7 km/h 58 % 0 in /  0.0 mm
12:42 83.1 °F /  28.4 °C 66.7 °F /  19.3 °C 30.1 in /  1017.8 hPa SW 5 mph /  8.0 km/h 11 mph /  17.7 km/h 58 % 0 in /  0.0 mm
12:47 83.3 °F /  28.5 °C 66.9 °F /  19.4 °C 30.1 in /  1017.8 hPa WNW 7 mph /  11.3 km/h 11 mph /  17.7 km/h 58 % 0 in /  0.0 mm
12:52 83.7 °F /  28.7 °C 67.3 °F /  19.6 °C 30.1 in /  1017.8 hPa WSW 7 mph /  11.3 km/h 11 mph /  17.7 km/h 58 % 0 in /  0.0 mm
13:02 83.5 °F /  28.6 °C 66.6 °F /  19.2 °C 30.1 in /  1017.8 hPa WSW 8 mph /  12.9 km/h 13 mph /  20.9 km/h 57 % 0 in /  0.0 mm
13:07 84 °F /  28.9 °C 66.6 °F /  19.2 °C 30.1 in /  1017.8 hPa West 8 mph /  12.9 km/h 13 mph /  20.9 km/h 56 % 0 in /  0.0 mm
13:12 84.2 °F /  29.0 °C 66.2 °F /  19.0 °C 30.1 in /  1017.8 hPa West 9 mph /  14.5 km/h 14 mph /  22.5 km/h 55 % 0 in /  0.0 mm
13:17 84.2 °F /  29.0 °C 66.7 °F /  19.3 °C 30.1 in /  1017.8 hPa West 4 mph /  6.4 km/h 14 mph /  22.5 km/h 56 % 0 in /  0.0 mm
13:22 84.2 °F /  29.0 °C 66.2 °F /  19.0 °C 30.1 in /  1017.8 hPa SSW 9 mph /  14.5 km/h 15 mph /  24.1 km/h 55 % 0 in /  0.0 mm
13:27 84.2 °F /  29.0 °C 66.2 °F /  19.0 °C 30.1 in /  1017.8 hPa SSW 11 mph /  17.7 km/h 15 mph /  24.1 km/h 55 % 0 in /  0.0 mm
13:32 84 °F /  28.9 °C 66.6 °F /  19.2 °C 30.1 in /  1017.8 hPa SSW 3 mph /  4.8 km/h 15 mph /  24.1 km/h 56 % 0 in /  0.0 mm
13:37 84.6 °F /  29.2 °C 66 °F /  18.9 °C 30.1 in /  1017.8 hPa West 6 mph /  9.7 km/h 15 mph /  24.1 km/h 54 % 0 in /  0.0 mm
13:42 84.4 °F /  29.1 °C 65.3 °F /  18.5 °C 30.1 in /  1017.8 hPa WSW 9 mph /  14.5 km/h 16 mph /  25.7 km/h 53 % 0 in /  0.0 mm
13:47 84.7 °F /  29.3 °C 65.7 °F /  18.7 °C 30.1 in /  1017.8 hPa SSW 3 mph /  4.8 km/h 16 mph /  25.7 km/h 53 % 0 in /  0.0 mm
13:52 85.1 °F /  29.5 °C 66 °F /  18.9 °C 30.1 in /  1017.8 hPa West 4 mph /  6.4 km/h 16 mph /  25.7 km/h 53 % 0 in /  0.0 mm
13:57 85.8 °F /  29.9 °C 66.2 °F /  19.0 °C 30.1 in /  1017.8 hPa SW 8 mph /  12.9 km/h 16 mph /  25.7 km/h 52 % 0 in /  0.0 mm
14:02 84.9 °F /  29.4 °C 64.8 °F /  18.2 °C 30.1 in /  1017.8 hPa WSW 11 mph /  17.7 km/h 16 mph /  25.7 km/h 51 % 0 in /  0.0 mm
14:07 84.9 °F /  29.4 °C 64.8 °F /  18.2 °C 30.1 in /  1017.8 hPa West 7 mph /  11.3 km/h 17 mph /  27.4 km/h 51 % 0 in /  0.0 mm
14:12 85.3 °F /  29.6 °C 65.1 °F /  18.4 °C 30.1 in /  1017.8 hPa WSW 8 mph /  12.9 km/h 17 mph /  27.4 km/h 51 % 0 in /  0.0 mm
14:17 85.5 °F /  29.7 °C 64.8 °F /  18.2 °C 30.1 in /  1017.8 hPa West 10 mph /  16.1 km/h 17 mph /  27.4 km/h 50 % 0 in /  0.0 mm
14:22 85.3 °F /  29.6 °C 64 °F /  17.8 °C 30.1 in /  1017.8 hPa SW 10 mph /  16.1 km/h 19 mph /  30.6 km/h 49 % 0 in /  0.0 mm
14:32 85.1 °F /  29.5 °C 64.4 °F /  18.0 °C 30.1 in /  1017.8 hPa WNW 8 mph /  12.9 km/h 19 mph /  30.6 km/h 50 % 0 in /  0.0 mm
14:37 85.5 °F /  29.7 °C 64.8 °F /  18.2 °C 30.1 in /  1017.8 hPa SW 12 mph /  19.3 km/h 18 mph /  29.0 km/h 50 % 0 in /  0.0 mm
14:42 85.3 °F /  29.6 °C 64.6 °F /  18.1 °C 30.1 in /  1017.8 hPa WSW 10 mph /  16.1 km/h 18 mph /  29.0 km/h 50 % 0 in /  0.0 mm
14:47 85.3 °F /  29.6 °C 64.6 °F /  18.1 °C 30.1 in /  1017.8 hPa SW 6 mph /  9.7 km/h 18 mph /  29.0 km/h 50 % 0 in /  0.0 mm
14:52 85.3 °F /  29.6 °C 64 °F /  17.8 °C 30.1 in /  1017.5 hPa SW 9 mph /  14.5 km/h 19 mph /  30.6 km/h 49 % 0 in /  0.0 mm
14:57 85.1 °F /  29.5 °C 64.4 °F /  18.0 °C 30.1 in /  1017.5 hPa West 11 mph /  17.7 km/h 19 mph /  30.6 km/h 50 % 0 in /  0.0 mm
15:02 85.1 °F /  29.5 °C 64.4 °F /  18.0 °C 30.1 in /  1017.5 hPa West 7 mph /  11.3 km/h 19 mph /  30.6 km/h 50 % 0 in /  0.0 mm
15:12 85.3 °F /  29.6 °C 64 °F /  17.8 °C 30.1 in /  1017.5 hPa WNW 6 mph /  9.7 km/h 15 mph /  24.1 km/h 49 % 0 in /  0.0 mm
15:17 85.5 °F /  29.7 °C 63.5 °F /  17.5 °C 30.1 in /  1017.5 hPa WNW 15 mph /  24.1 km/h 16 mph /  25.7 km/h 48 % 0 in /  0.0 mm
15:22 85.3 °F /  29.6 °C 65.1 °F /  18.4 °C 30.1 in /  1017.5 hPa SSW 7 mph /  11.3 km/h 16 mph /  25.7 km/h 51 % 0 in /  0.0 mm
15:32 85.6 °F /  29.8 °C 63.7 °F /  17.6 °C 30.1 in /  1017.8 hPa West 19 mph /  30.6 km/h 19 mph /  30.6 km/h 48 % 0 in /  0.0 mm
15:37 85.1 °F /  29.5 °C 63.1 °F /  17.3 °C 30.1 in /  1017.5 hPa WSW 6 mph /  9.7 km/h 19 mph /  30.6 km/h 48 % 0 in /  0.0 mm
15:42 85.1 °F /  29.5 °C 62.6 °F /  17.0 °C 30.1 in /  1017.5 hPa WNW 10 mph /  16.1 km/h 19 mph /  30.6 km/h 47 % 0 in /  0.0 mm
15:52 85.5 °F /  29.7 °C 62.2 °F /  16.8 °C 30.1 in /  1017.5 hPa WNW 13 mph /  20.9 km/h 18 mph /  29.0 km/h 46 % 0 in /  0.0 mm
15:57 85.3 °F /  29.6 °C 62.2 °F /  16.8 °C 30.1 in /  1017.5 hPa West 10 mph /  16.1 km/h 18 mph /  29.0 km/h 46 % 0 in /  0.0 mm
16:02 85.5 °F /  29.7 °C 61 °F /  16.1 °C 30.1 in /  1017.5 hPa West 4 mph /  6.4 km/h 17 mph /  27.4 km/h 44 % 0 in /  0.0 mm
16:12 85.6 °F /  29.8 °C 57.9 °F /  14.4 °C 30.1 in /  1017.5 hPa West 9 mph /  14.5 km/h 19 mph /  30.6 km/h 39 % 0 in /  0.0 mm
16:17 86.2 °F /  30.1 °C 56.8 °F /  13.8 °C 30.1 in /  1017.5 hPa WSW 9 mph /  14.5 km/h 18 mph /  29.0 km/h 37 % 0 in /  0.0 mm
16:22 86.4 °F /  30.2 °C 57 °F /  13.9 °C 30.1 in /  1017.8 hPa West 11 mph /  17.7 km/h 16 mph /  25.7 km/h 37 % 0 in /  0.0 mm
16:32 86.4 °F /  30.2 °C 54.7 °F /  12.6 °C 30.1 in /  1017.8 hPa West 5 mph /  8.0 km/h 17 mph /  27.4 km/h 34 % 0 in /  0.0 mm
16:37 86.2 °F /  30.1 °C 53.8 °F /  12.1 °C 30.1 in /  1017.8 hPa West 8 mph /  12.9 km/h 17 mph /  27.4 km/h 33 % 0 in /  0.0 mm
16:42 86.4 °F /  30.2 °C 54.7 °F /  12.6 °C 30.1 in /  1017.5 hPa WNW 11 mph /  17.7 km/h 17 mph /  27.4 km/h 34 % 0 in /  0.0 mm
16:47 86.4 °F /  30.2 °C 54.7 °F /  12.6 °C 30.1 in /  1017.5 hPa West 8 mph /  12.9 km/h 14 mph /  22.5 km/h 34 % 0 in /  0.0 mm
16:52 86.2 °F /  30.1 °C 54.5 °F /  12.5 °C 30.1 in /  1017.8 hPa WSW 9 mph /  14.5 km/h 16 mph /  25.7 km/h 34 % 0 in /  0.0 mm
16:57 86 °F /  30.0 °C 53.6 °F /  12.0 °C 30.1 in /  1017.8 hPa West 9 mph /  14.5 km/h 16 mph /  25.7 km/h 33 % 0 in /  0.0 mm
17:02 85.6 °F /  29.8 °C 54.9 °F /  12.7 °C 30.1 in /  1017.8 hPa West 6 mph /  9.7 km/h 14 mph /  22.5 km/h 35 % 0 in /  0.0 mm
17:07 85.1 °F /  29.5 °C 54.3 °F /  12.4 °C 30.1 in /  1017.8 hPa WSW 9 mph /  14.5 km/h 14 mph /  22.5 km/h 35 % 0 in /  0.0 mm
17:12 84.6 °F /  29.2 °C 55.4 °F /  13.0 °C 30.1 in /  1017.8 hPa West 7 mph /  11.3 km/h 16 mph /  25.7 km/h 37 % 0 in /  0.0 mm
17:17 84.7 °F /  29.3 °C 56.3 °F /  13.5 °C 30.1 in /  1017.8 hPa West 7 mph /  11.3 km/h 16 mph /  25.7 km/h 38 % 0 in /  0.0 mm
17:22 84.7 °F /  29.3 °C 57 °F /  13.9 °C 30.1 in /  1017.8 hPa WNW 8 mph /  12.9 km/h 15 mph /  24.1 km/h 39 % 0 in /  0.0 mm
17:27 84.6 °F /  29.2 °C 56.8 °F /  13.8 °C 30.1 in /  1017.8 hPa West 13 mph /  20.9 km/h 16 mph /  25.7 km/h 39 % 0 in /  0.0 mm
17:32 84.9 °F /  29.4 °C 57.2 °F /  14.0 °C 30.1 in /  1017.8 hPa WNW 13 mph /  20.9 km/h 16 mph /  25.7 km/h 39 % 0 in /  0.0 mm
17:37 85.3 °F /  29.6 °C 57.6 °F /  14.2 °C 30.1 in /  1017.8 hPa West 8 mph /  12.9 km/h 17 mph /  27.4 km/h 39 % 0 in /  0.0 mm
17:42 85.5 °F /  29.7 °C 57 °F /  13.9 °C 30.1 in /  1017.8 hPa WNW 7 mph /  11.3 km/h 17 mph /  27.4 km/h 38 % 0 in /  0.0 mm
17:47 85.3 °F /  29.6 °C 57.6 °F /  14.2 °C 30.1 in /  1017.8 hPa West 6 mph /  9.7 km/h 17 mph /  27.4 km/h 39 % 0 in /  0.0 mm
17:52 85.3 °F /  29.6 °C 58.3 °F /  14.6 °C 30.1 in /  1017.8 hPa West 11 mph /  17.7 km/h 16 mph /  25.7 km/h 40 % 0 in /  0.0 mm
17:57 85.3 °F /  29.6 °C 59.5 °F /  15.3 °C 30.1 in /  1017.8 hPa WNW 9 mph /  14.5 km/h 17 mph /  27.4 km/h 42 % 0 in /  0.0 mm
18:02 85.3 °F /  29.6 °C 59 °F /  15.0 °C 30.1 in /  1017.8 hPa West 4 mph /  6.4 km/h 17 mph /  27.4 km/h 41 % 0 in /  0.0 mm
18:07 85.5 °F /  29.7 °C 59.7 °F /  15.4 °C 30.1 in /  1017.8 hPa WNW 5 mph /  8.0 km/h 17 mph /  27.4 km/h 42 % 0 in /  0.0 mm
18:12 85.5 °F /  29.7 °C 60.4 °F /  15.8 °C 30.1 in /  1017.8 hPa West 7 mph /  11.3 km/h 16 mph /  25.7 km/h 43 % 0 in /  0.0 mm
18:17 84.9 °F /  29.4 °C 60.6 °F /  15.9 °C 30.1 in /  1017.8 hPa WNW 12 mph /  19.3 km/h 16 mph /  25.7 km/h 44 % 0 in /  0.0 mm
18:22 84.9 °F /  29.4 °C 60.6 °F /  15.9 °C 30.1 in /  1017.8 hPa WNW 12 mph /  19.3 km/h 16 mph /  25.7 km/h 44 % 0 in /  0.0 mm
18:27 84.7 °F /  29.3 °C 61 °F /  16.1 °C 30.1 in /  1017.8 hPa NW 8 mph /  12.9 km/h 13 mph /  20.9 km/h 45 % 0 in /  0.0 mm
18:32 84.9 °F /  29.4 °C 61.2 °F /  16.2 °C 30.1 in /  1017.8 hPa WNW 6 mph /  9.7 km/h 17 mph /  27.4 km/h 45 % 0 in /  0.0 mm
18:37 84.4 °F /  29.1 °C 61.3 °F /  16.3 °C 30.1 in /  1017.8 hPa West 8 mph /  12.9 km/h 17 mph /  27.4 km/h 46 % 0 in /  0.0 mm
18:42 83.8 °F /  28.8 °C 60.8 °F /  16.0 °C 30.1 in /  1017.8 hPa NW 3 mph /  4.8 km/h 17 mph /  27.4 km/h 46 % 0 in /  0.0 mm
18:52 84.4 °F /  29.1 °C 60.1 °F /  15.6 °C 30.1 in /  1017.8 hPa West 4 mph /  6.4 km/h 14 mph /  22.5 km/h 44 % 0 in /  0.0 mm
19:02 84.6 °F /  29.2 °C 60.8 °F /  16.0 °C 30.1 in /  1018.2 hPa WNW 9 mph /  14.5 km/h 16 mph /  25.7 km/h 45 % 0 in /  0.0 mm
19:07 84.6 °F /  29.2 °C 60.8 °F /  16.0 °C 30.1 in /  1017.8 hPa NW 8 mph /  12.9 km/h 16 mph /  25.7 km/h 45 % 0 in /  0.0 mm
19:12 84 °F /  28.9 °C 59.7 °F /  15.4 °C 30.1 in /  1018.2 hPa West 11 mph /  17.7 km/h 16 mph /  25.7 km/h 44 % 0 in /  0.0 mm
19:17 83.8 °F /  28.8 °C 60.3 °F /  15.7 °C 30.1 in /  1018.2 hPa WNW 8 mph /  12.9 km/h 14 mph /  22.5 km/h 45 % 0 in /  0.0 mm
19:22 83.8 °F /  28.8 °C 60.8 °F /  16.0 °C 30.1 in /  1017.8 hPa NNW 2 mph /  3.2 km/h 14 mph /  22.5 km/h 46 % 0 in /  0.0 mm
19:27 84.2 °F /  29.0 °C 61.2 °F /  16.2 °C 30.1 in /  1017.8 hPa NW 5 mph /  8.0 km/h 14 mph /  22.5 km/h 46 % 0 in /  0.0 mm
19:32 84 °F /  28.9 °C 61 °F /  16.1 °C 30.1 in /  1017.8 hPa NW 2 mph /  3.2 km/h 11 mph /  17.7 km/h 46 % 0 in /  0.0 mm
19:37 83.7 °F /  28.7 °C 60.1 °F /  15.6 °C 30.1 in /  1018.2 hPa WNW 5 mph /  8.0 km/h 10 mph /  16.1 km/h 45 % 0 in /  0.0 mm
19:42 83.1 °F /  28.4 °C 60.8 °F /  16.0 °C 30.1 in /  1018.2 hPa WNW 3 mph /  4.8 km/h 10 mph /  16.1 km/h 47 % 0 in /  0.0 mm
19:47 82.8 °F /  28.2 °C 60.4 °F /  15.8 °C 30.1 in /  1018.2 hPa WNW 3 mph /  4.8 km/h 11 mph /  17.7 km/h 47 % 0 in /  0.0 mm
19:52 82.2 °F /  27.9 °C 59.9 °F /  15.5 °C 30.1 in /  1018.2 hPa WNW 7 mph /  11.3 km/h 11 mph /  17.7 km/h 47 % 0 in /  0.0 mm
19:57 81.9 °F /  27.7 °C 60.3 °F /  15.7 °C 30.1 in /  1018.2 hPa WNW 3 mph /  4.8 km/h 11 mph /  17.7 km/h 48 % 0 in /  0.0 mm
20:02 81.5 °F /  27.5 °C 59.9 °F /  15.5 °C 30.1 in /  1018.5 hPa NW 4 mph /  6.4 km/h 10 mph /  16.1 km/h 48 % 0 in /  0.0 mm
20:07 81.1 °F /  27.3 °C 59.5 °F /  15.3 °C 30.1 in /  1018.5 hPa West 6 mph /  9.7 km/h 10 mph /  16.1 km/h 48 % 0 in /  0.0 mm
20:12 80.8 °F /  27.1 °C 59.9 °F /  15.5 °C 30.1 in /  1018.5 hPa West 8 mph /  12.9 km/h 11 mph /  17.7 km/h 49 % 0 in /  0.0 mm
20:22 80.4 °F /  26.9 °C 60.1 °F /  15.6 °C 30.1 in /  1018.5 hPa NW 5 mph /  8.0 km/h 11 mph /  17.7 km/h 50 % 0 in /  0.0 mm
20:27 80.4 °F /  26.9 °C 60.1 °F /  15.6 °C 30.1 in /  1018.5 hPa WNW 5 mph /  8.0 km/h 11 mph /  17.7 km/h 50 % 0 in /  0.0 mm
20:32 80.4 °F /  26.9 °C 60.6 °F /  15.9 °C 30.1 in /  1018.5 hPa West 3 mph /  4.8 km/h 8 mph /  12.9 km/h 51 % 0 in /  0.0 mm
20:37 80.2 °F /  26.8 °C 60.4 °F /  15.8 °C 30.1 in /  1018.8 hPa WNW 1 mph /  1.6 km/h 7 mph /  11.3 km/h 51 % 0 in /  0.0 mm
20:42 79.9 °F /  26.6 °C 60.6 °F /  15.9 °C 30.1 in /  1018.8 hPa NW 1 mph /  1.6 km/h 7 mph /  11.3 km/h 52 % 0 in /  0.0 mm
20:47 79.3 °F /  26.3 °C 60.3 °F /  15.7 °C 30.1 in /  1018.8 hPa NW 1 mph /  1.6 km/h 6 mph /  9.7 km/h 52 % 0 in /  0.0 mm
20:52 79.2 °F /  26.2 °C 60.6 °F /  15.9 °C 30.1 in /  1018.8 hPa West 1 mph /  1.6 km/h 6 mph /  9.7 km/h 53 % 0 in /  0.0 mm
20:57 79 °F /  26.1 °C 61 °F /  16.1 °C 30.1 in /  1018.8 hPa WNW 1 mph /  1.6 km/h 6 mph /  9.7 km/h 54 % 0 in /  0.0 mm
21:02 78.4 °F /  25.8 °C 61 °F /  16.1 °C 30.1 in /  1018.8 hPa WNW 2 mph /  3.2 km/h 6 mph /  9.7 km/h 55 % 0 in /  0.0 mm
21:12 77.5 °F /  25.3 °C 60.6 °F /  15.9 °C 30.1 in /  1019.2 hPa WNW 1 mph /  1.6 km/h 5 mph /  8.0 km/h 56 % 0 in /  0.0 mm
21:17 77.2 °F /  25.1 °C 60.8 °F /  16.0 °C 30.1 in /  1019.2 hPa West 2 mph /  3.2 km/h 5 mph /  8.0 km/h 57 % 0 in /  0.0 mm
21:22 76.6 °F /  24.8 °C 60.3 °F /  15.7 °C 30.1 in /  1019.5 hPa West 2 mph /  3.2 km/h 5 mph /  8.0 km/h 57 % 0 in /  0.0 mm
21:32 75.9 °F /  24.4 °C 60.1 °F /  15.6 °C 30.1 in /  1019.5 hPa WNW 3 mph /  4.8 km/h 5 mph /  8.0 km/h 58 % 0 in /  0.0 mm
21:37 75.7 °F /  24.3 °C 59.9 °F /  15.5 °C 30.1 in /  1019.5 hPa WNW 2 mph /  3.2 km/h 5 mph /  8.0 km/h 58 % 0 in /  0.0 mm
21:42 75.6 °F /  24.2 °C 59.7 °F /  15.4 °C 30.1 in /  1019.5 hPa WNW 3 mph /  4.8 km/h 4 mph /  6.4 km/h 58 % 0 in /  0.0 mm
21:47 75.4 °F /  24.1 °C 60.1 °F /  15.6 °C 30.1 in /  1019.9 hPa WNW 3 mph /  4.8 km/h 4 mph /  6.4 km/h 59 % 0 in /  0.0 mm
21:52 75 °F /  23.9 °C 59.7 °F /  15.4 °C 30.1 in /  1019.9 hPa WNW 1 mph /  1.6 km/h 4 mph /  6.4 km/h 59 % 0 in /  0.0 mm
21:57 74.7 °F /  23.7 °C 59.9 °F /  15.5 °C 30.1 in /  1019.9 hPa WNW 3 mph /  4.8 km/h 4 mph /  6.4 km/h 60 % 0 in /  0.0 mm
22:02 74.5 °F /  23.6 °C 59.2 °F /  15.1 °C 30.1 in /  1019.9 hPa WNW 3 mph /  4.8 km/h 4 mph /  6.4 km/h 59 % 0 in /  0.0 mm
22:12 74.5 °F /  23.6 °C 59.2 °F /  15.1 °C 30.1 in /  1020.2 hPa West 2 mph /  3.2 km/h 4 mph /  6.4 km/h 59 % 0 in /  0.0 mm
22:22 74.1 °F /  23.4 °C 58.5 °F /  14.7 °C 30.1 in /  1020.2 hPa WNW 4 mph /  6.4 km/h 6 mph /  9.7 km/h 58 % 0 in /  0.0 mm
22:27 74.1 °F /  23.4 °C 58.8 °F /  14.9 °C 30.1 in /  1020.2 hPa NNW 2 mph /  3.2 km/h 8 mph /  12.9 km/h 59 % 0 in /  0.0 mm
22:32 73.6 °F /  23.1 °C 58.8 °F /  14.9 °C 30.1 in /  1020.5 hPa WNW 1 mph /  1.6 km/h 8 mph /  12.9 km/h 60 % 0 in /  0.0 mm
22:42 72.5 °F /  22.5 °C 58.8 °F /  14.9 °C 30.1 in /  1020.5 hPa North 4 mph /  6.4 km/h 6 mph /  9.7 km/h 62 % 0 in /  0.0 mm
22:47 72 °F /  22.2 °C 58.6 °F /  14.8 °C 30.1 in /  1020.5 hPa NNW 4 mph /  6.4 km/h 5 mph /  8.0 km/h 63 % 0 in /  0.0 mm
22:52 71.4 °F /  21.9 °C 58.1 °F /  14.5 °C 30.2 in /  1020.9 hPa NNW 3 mph /  4.8 km/h 5 mph /  8.0 km/h 63 % 0 in /  0.0 mm
22:57 71.1 °F /  21.7 °C 57.7 °F /  14.3 °C 30.2 in /  1020.9 hPa NNW 2 mph /  3.2 km/h 7 mph /  11.3 km/h 63 % 0 in /  0.0 mm
23:02 70.7 °F /  21.5 °C 57.6 °F /  14.2 °C 30.2 in /  1020.9 hPa North 1 mph /  1.6 km/h 7 mph /  11.3 km/h 63 % 0 in /  0.0 mm
23:07 70.5 °F /  21.4 °C 56.8 °F /  13.8 °C 30.2 in /  1020.9 hPa NW 1 mph /  1.6 km/h 7 mph /  11.3 km/h 62 % 0 in /  0.0 mm
23:12 70.3 °F /  21.3 °C 56.7 °F /  13.7 °C 30.2 in /  1021.2 hPa NW 4 mph /  6.4 km/h 4 mph /  6.4 km/h 62 % 0 in /  0.0 mm
23:17 70.3 °F /  21.3 °C 56.7 °F /  13.7 °C 30.2 in /  1020.9 hPa Calm   4 mph /  6.4 km/h 62 % 0 in /  0.0 mm
23:22 70.2 °F /  21.2 °C 56.5 °F /  13.6 °C 30.2 in /  1020.9 hPa NW 1 mph /  1.6 km/h 4 mph /  6.4 km/h 62 % 0 in /  0.0 mm
23:32 70 °F /  21.1 °C 55.4 °F /  13.0 °C 30.2 in /  1021.2 hPa WNW 1 mph /  1.6 km/h 4 mph /  6.4 km/h 60 % 0 in /  0.0 mm
23:37 70 °F /  21.1 °C 55 °F /  12.8 °C 30.2 in /  1021.2 hPa NW 2 mph /  3.2 km/h 4 mph /  6.4 km/h 59 % 0 in /  0.0 mm
23:42 70 °F /  21.1 °C 54.5 °F /  12.5 °C 30.2 in /  1021.2 hPa NNW 1 mph /  1.6 km/h 4 mph /  6.4 km/h 58 % 0 in /  0.0 mm
23:47 70 °F /  21.1 °C 53.6 °F /  12.0 °C 30.2 in /  1021.2 hPa NW 3 mph /  4.8 km/h 4 mph /  6.4 km/h 56 % 0 in /  0.0 mm
23:52 69.6 °F /  20.9 °C 53.2 °F /  11.8 °C 30.2 in /  1021.2 hPa NNW 2 mph /  3.2 km/h 4 mph /  6.4 km/h 56 % 0 in /  0.0 mm
23:57 69.6 °F /  20.9 °C 52.7 °F /  11.5 °C 30.2 in /  1021.2 hPa NW 1 mph /  1.6 km/h 6 mph /  9.7 km/h 55 % 0 in /  0.0 mm
Meteo18
Compliments of Weather Underground - 4 mb

Script developed by  Jim McMurry - jmcmurry@mwt.net Adapted for the template by  Wim van der Kuil - Leuven-Template.eu

You find our weather info also at:

European Weather Network

Weather Underground

Equipment we use:

Weather-station
Davis Vue

Weather-program
Meteohub

Weather-server
Raspberry PI 2 B+

Provider
1 and 1

Davis Vue

Meteohub

Raspberry PI 2 B+

1 and 1